Flight Track Log - Related Links

Times and Time Zones

All times are in EST time to prevent confusion due to time zone crossing. See the AAY875 flight status page for this flight to view local times or setup timezone preferences in your user account.

Time Position Orientation Groundspeed Altitude Reporting Facility
EST Latitude Longitude Course Direction KTS MPH feet Rate Location/Type
Thu 12:03:46 PM 44.8450 -68.8911 237° Southwest 193 222 3,000  Level Boston Center
Thu 12:04:47 PM 44.8089 -68.9708 237° Southwest 250 288 5,700 2,927 Climbing Boston Center
Thu 12:05:49 PM 44.7700 -69.0583 238° Southwest 258 297 9,000 2,683 Climbing Boston Center
Thu 12:06:50 PM 44.7331 -69.1519 241° Southwest 267 307 11,200 2,066 Climbing Boston Center
Thu 12:07:51 PM 44.6869 -69.2703 241° Southwest 330 380 13,200 2,293 Climbing Boston Center
Thu 12:08:53 PM 44.6386 -69.3956 242° Southwest 352 405 15,900 2,585 Climbing Boston Center
Thu 12:09:54 PM 44.5875 -69.5228 241° Southwest 367 422 18,500 2,508 Climbing Boston Center
Thu 12:10:55 PM 44.5381 -69.6481 241° Southwest 363 418 21,000 2,262 Climbing Boston Center
Thu 12:11:56 PM 44.4886 -69.7728 241° Southwest 362 417 23,100 2,390 Climbing Boston Center
Thu 12:12:58 PM 44.4383 -69.8953 240° Southwest 359 413 25,900 2,195 Climbing Boston Center
Thu 12:13:59 PM 44.3917 -70.0072 240° Southwest 337 388 27,600 1,426 Climbing Boston Center
Thu 12:15:00 PM 44.3256 -70.1042 226° Southwest 343 395 28,800 1,171 Climbing Boston Center
Thu 12:16:02 PM 44.2364 -70.2114 221° Southwest 350 403 30,000 585 Climbing Boston Center
Thu 12:17:03 PM 44.1633 -70.3003 221° Southwest 346 398 30,000  Level Boston Center
Thu 12:18:04 PM 44.0894 -70.3908 221° Southwest 350 403 30,000  Level Boston Center
Thu 12:19:05 PM 44.0150 -70.4803 221° Southwest 354 407 30,000  Level Boston Center
Thu 12:20:07 PM 43.9419 -70.5697 221° Southwest 351 404 30,000  Level Boston Center
Thu 12:21:08 PM 43.8678 -70.6564 220° Southwest 345 397 30,000  Level Boston Center
Thu 12:22:09 PM 43.7944 -70.7431 220° Southwest 346 398 30,000  Level Boston Center
Thu 12:23:10 PM 43.7219 -70.8294 221° Southwest 340 391 30,000  Level Boston Center
Thu 12:24:11 PM 43.6433 -70.9239 221° Southwest 348 400 30,000  Level Boston Center
Thu 12:25:25 PM 43.5725 -71.0167 224° Southwest 351 404 30,000  Level Boston Center
Thu 12:26:26 PM 43.4844 -71.1197 220° Southwest 347 399 30,000  Level Boston Center
Thu 12:27:27 PM 43.4103 -71.2050 220° Southwest 347 399 30,000  Level Boston Center
Thu 12:28:28 PM 43.3383 -71.2925 222° Southwest 346 398 30,000  Level Boston Center
Thu 12:29:30 PM 43.2633 -71.3756 219° Southwest 345 397 30,000  Level Boston Center
Thu 12:30:31 PM 43.1908 -71.4617 221° Southwest 345 397 30,000  Level Boston Center
Thu 12:31:32 PM 43.1136 -71.5419 217° Southwest 346 398 30,000  Level Boston Center
Thu 12:32:33 PM 43.0422 -71.6319 223° Southwest 349 402 30,000  Level Boston Center
Thu 12:33:34 PM 42.9678 -71.7144 219° Southwest 346 398 30,000  Level Boston Center
Thu 12:34:36 PM 42.8800 -71.8147 220° Southwest 344 396 30,000  Level Boston Center
Thu 12:35:37 PM 42.8061 -71.8972 219° Southwest 344 396 30,000  Level Boston Center
Thu 12:36:38 PM 42.7322 -71.9811 220° Southwest 347 399 30,000  Level Boston Center
Thu 12:37:39 PM 42.6597 -72.0644 220° Southwest 343 395 30,000  Level Boston Center
Thu 12:38:40 PM 42.5853 -72.1486 220° Southwest 347 399 30,000  Level Boston Center
Thu 12:39:41 PM 42.5117 -72.2317 220° Southwest 346 398 30,000  Level Boston Center
Thu 12:40:42 PM 42.4519 -72.2992 220° Southwest 342 394 30,000  Level Boston Center
Thu 12:41:43 PM 42.3636 -72.3975 219° Southwest 343 395 30,000  Level Boston Center
Thu 12:42:45 PM 42.2878 -72.4808 219° Southwest 350 403 30,000  Level Boston Center
Thu 12:43:46 PM 42.2142 -72.5644 220° Southwest 348 400 30,000  Level Boston Center
Thu 12:44:47 PM 42.1414 -72.6450 219° Southwest 339 390 30,000  Level Boston Center
Thu 12:45:48 PM 42.0686 -72.7261 220° Southwest 339 390 30,000  Level Boston Center
Thu 12:46:49 PM 41.9953 -72.8072 219° Southwest 338 389 30,000  Level Boston Center
Thu 12:47:50 PM 41.9231 -72.8881 220° Southwest 338 389 30,000  Level Boston Center
Thu 12:48:51 PM 41.8353 -72.9831 219° Southwest 338 389 30,000  Level Boston Center
Thu 12:49:52 PM 41.7614 -73.0631 219° Southwest 339 390 30,000  Level Boston Center
Thu 12:50:53 PM 41.6831 -73.1378 215° Southwest 344 396 30,000  Level Boston Center
Thu 12:51:54 PM 41.6133 -73.2192 221° Southwest 337 388 30,000  Level Boston Center
Thu 12:52:55 PM 41.5428 -73.3000 221° Southwest 334 384 30,000  Level Boston Center
Thu 12:53:57 PM 41.4750 -73.3728 219° Southwest 335 386 30,000  Level Boston Center
Thu 12:54:58 PM 41.3900 -73.4661 219° Southwest 332 382 30,000  Level Boston Center
Thu 12:55:59 PM 41.3183 -73.5422 219° Southwest 331 381 30,000  Level Boston Center
Thu 12:57:00 PM 41.2539 -73.6250 224° Southwest 323 372 30,000  Level Boston Center
Thu 12:57:43 PM 41.2214 -73.6869 235° Southwest 330 380 30,000  Level New York Center
Thu 12:58:43 PM 41.1669 -73.7781 232° Southwest 330 380 30,000  Level New York Center
Thu 12:59:43 PM 41.1125 -73.8719 232° Southwest 325 374 30,000  Level New York Center
Thu 01:00:43 PM 41.0561 -73.9631 231° Southwest 325 374 30,000  Level New York Center
Thu 01:01:43 PM 41.0014 -74.0594 233° Southwest 325 374 30,000  Level New York Center
Thu 01:02:43 PM 40.9444 -74.1528 231° Southwest 330 380 30,000  Level New York Center
Thu 01:03:43 PM 40.8878 -74.2433 230° Southwest 330 380 30,000 -50 Level New York Center
Thu 01:04:43 PM 40.8331 -74.3308 230° Southwest 324 373 29,900  Descending New York Center
Thu 01:05:43 PM 40.7758 -74.4267 232° Southwest 324 373 30,000  Climbing New York Center
Thu 01:06:43 PM 40.7211 -74.5142 230° Southwest 324 373 29,900  Descending New York Center
Thu 01:07:43 PM 40.6661 -74.6067 232° Southwest 324 373 30,000 50 Climbing New York Center
Thu 01:08:43 PM 40.6131 -74.6967 232° Southwest 324 373 30,000  Level New York Center
Thu 01:09:43 PM 40.5558 -74.7836 229° Southwest 319 367 30,000  Level New York Center
Thu 01:10:43 PM 40.4967 -74.8675 227° Southwest 324 373 30,000  Level New York Center
Thu 01:11:43 PM 40.4375 -74.9511 227° Southwest 324 373 30,000 -50 Level New York Center
Thu 01:12:43 PM 40.3761 -75.0347 226° Southwest 324 373 29,900  Descending New York Center
Thu 01:13:43 PM 40.3167 -75.1208 228° Southwest 324 373 30,000 50 Climbing New York Center
Thu 01:14:43 PM 40.2575 -75.2042 227° Southwest 324 373 30,000  Level New York Center
Thu 01:15:43 PM 40.1981 -75.2872 227° Southwest 324 373 30,000 -50 Level New York Center
Thu 01:16:43 PM 40.1364 -75.3731 227° Southwest 324 373 29,900  Descending New York Center
Thu 01:17:43 PM 40.0767 -75.4558 227° Southwest 324 373 30,000 34 Climbing New York Center
Thu 01:19:39 PM 39.9572 -75.6186 226° Southwest 320 368 30,000  Level Washington Center
Thu 01:20:39 PM 39.8989 -75.7050 229° Southwest 320 368 30,000  Level Washington Center
Thu 01:21:36 PM 39.8447 -75.7914 231° Southwest 315 362 30,000 -51 Level Washington Center
Thu 01:22:37 PM 39.7903 -75.8806 232° Southwest 315 362 29,900 -49 Descending Washington Center
Thu 01:23:39 PM 39.7358 -75.9667 231° Southwest 315 362 29,900  Level Washington Center
Thu 01:24:37 PM 39.6814 -76.0553 231° Southwest 315 362 29,900  Level Washington Center
Thu 01:25:37 PM 39.6228 -76.1439 229° Southwest 320 368 29,900  Level Washington Center
Thu 01:26:38 PM 39.5681 -76.2322 231° Southwest 320 368 29,900 49 Level Washington Center
Thu 01:27:39 PM 39.5136 -76.3178 230° Southwest 320 368 30,000 51 Climbing Washington Center
Thu 01:28:36 PM 39.4589 -76.4033 230° Southwest 320 368 30,000 -51 Level Washington Center
Thu 01:29:37 PM 39.4019 -76.4914 230° Southwest 320 368 29,900  Descending Washington Center
Thu 01:30:38 PM 39.3428 -76.5792 229° Southwest 325 374 30,000 49 Climbing Washington Center
Thu 01:31:39 PM 39.2881 -76.6614 229° Southwest 320 368 30,000  Level Washington Center
Thu 01:32:37 PM 39.2308 -76.7517 231° Southwest 320 368 30,000  Level Washington Center
Thu 01:33:38 PM 39.1736 -76.8392 230° Southwest 320 368 30,000  Level Washington Center
Thu 01:34:38 PM 39.1208 -76.9239 231° Southwest 320 368 30,000  Level Washington Center
Thu 01:35:39 PM 39.0633 -77.0111 230° Southwest 320 368 30,000  Level Washington Center
Thu 01:36:37 PM 38.9978 -77.0872 222° Southwest 320 368 30,000  Level Washington Center
Thu 01:37:38 PM 38.9281 -77.1633 220° Southwest 320 368 30,000  Level Washington Center
Thu 01:38:37 PM 38.8625 -77.2367 221° Southwest 320 368 30,000  Level Washington Center
Thu 01:39:38 PM 38.7947 -77.3097 220° Southwest 320 368 30,000  Level Washington Center
Thu 01:40:39 PM 38.7250 -77.3853 220° Southwest 320 368 30,000  Level Washington Center
Thu 01:41:37 PM 38.6656 -77.4528 222° Southwest 320 368 30,000  Level Washington Center
Thu 01:42:38 PM 38.5933 -77.5281 219° Southwest 326 375 30,000  Level Washington Center
Thu 01:43:39 PM 38.5256 -77.6006 220° Southwest 326 375 30,000  Level Washington Center
Thu 01:44:38 PM 38.4575 -77.6756 221° Southwest 326 375 30,000  Level Washington Center
Thu 01:45:39 PM 38.3917 -77.7506 222° Southwest 326 375 30,000  Level Washington Center
Thu 01:46:37 PM 38.3214 -77.8228 219° Southwest 326 375 30,000  Level Washington Center
Thu 01:47:38 PM 38.2553 -77.8975 222° Southwest 326 375 30,000  Level Washington Center
Thu 01:48:38 PM 38.1853 -77.9692 219° Southwest 326 375 30,000  Level Washington Center
Thu 01:49:39 PM 38.1192 -78.0411 221° Southwest 326 375 30,000  Level Washington Center
Thu 01:50:37 PM 38.0508 -78.1153 221° Southwest 326 375 30,000  Level Washington Center
Thu 01:51:38 PM 37.9847 -78.1869 221° Southwest 321 369 30,000  Level Washington Center
Thu 01:52:37 PM 37.9122 -78.2528 216° Southwest 321 369 30,000  Level Washington Center
Thu 01:53:37 PM 37.8397 -78.3239 218° Southwest 321 369 30,000  Level Washington Center
Thu 01:54:38 PM 37.7672 -78.3922 217° Southwest 326 375 30,000  Level Washington Center
Thu 01:55:37 PM 37.6947 -78.4603 217° Southwest 326 375 30,000  Level Washington Center
Thu 01:56:37 PM 37.6178 -78.5333 217° Southwest 326 375 30,000  Level Washington Center
Thu 01:57:38 PM 37.5472 -78.6014 217° Southwest 326 375 30,000  Level Washington Center
Thu 01:58:39 PM 37.4747 -78.6692 217° Southwest 326 375 30,000  Level Washington Center
Thu 01:59:36 PM 37.4019 -78.7369 217° Southwest 326 375 30,000  Level Washington Center
Thu 02:00:38 PM 37.3272 -78.8044 216° Southwest 326 375 30,000  Level Washington Center
Thu 02:01:38 PM 37.2631 -78.8644 217° Southwest 326 375 30,000  Level Washington Center
Thu 02:02:39 PM 37.1903 -78.9317 216° Southwest 326 375 30,000  Level Washington Center
Thu 02:03:37 PM 37.1153 -78.9986 215° Southwest 326 375 30,000  Level Washington Center
Thu 02:04:38 PM 37.0425 -79.0656 216° Southwest 326 375 30,000  Level Washington Center
Thu 02:05:39 PM 36.9694 -79.1353 217° Southwest 326 375 30,000  Level Washington Center
Thu 02:06:39 PM 36.8967 -79.2019 216° Southwest 326 375 30,000  Level Washington Center
Thu 02:07:37 PM 36.8172 -79.2761 217° Southwest 326 375 30,000  Level Washington Center
Thu 02:08:37 PM 36.7419 -79.3450 216° Southwest 332 382 30,000  Level Washington Center
Thu 02:09:38 PM 36.6689 -79.4114 216° Southwest 332 382 30,000  Level Washington Center
Thu 02:10:39 PM 36.5981 -79.4778 217° Southwest 332 382 30,000  Level Washington Center
Thu 02:11:36 PM 36.5228 -79.5439 215° Southwest 332 382 30,000  Level Washington Center
Thu 02:12:37 PM 36.4581 -79.6053 217° Southwest 332 382 30,000  Level Washington Center
Thu 02:13:29 PM 36.3850 -79.6675 214° Southwest 335 386 30,000  Level Atlanta Center
Thu 02:14:29 PM 36.3125 -79.7358 217° Southwest 346 398 30,000  Level Atlanta Center
Thu 02:15:29 PM 36.2375 -79.8017 215° Southwest 346 398 30,000  Level Atlanta Center
Thu 02:16:29 PM 36.1647 -79.8672 216° Southwest 346 398 30,000  Level Atlanta Center
Thu 02:17:29 PM 36.0919 -79.9353 217° Southwest 341 392 30,000  Level Atlanta Center
Thu 02:18:29 PM 36.0206 -79.9875 211° Southwest 341 392 30,000  Level Atlanta Center
Thu 02:19:29 PM 35.9303 -80.0331 202° Southwest 335 386 30,000  Level Atlanta Center
Thu 02:20:29 PM 35.8422 -80.0783 203° Southwest 347 399 30,000  Level Atlanta Center
Thu 02:21:29 PM 35.7517 -80.1236 202° Southwest 352 405 30,000  Level Atlanta Center
Thu 02:22:29 PM 35.6533 -80.1769 204° Southwest 352 405 30,000  Level Atlanta Center
Thu 02:23:29 PM 35.5631 -80.2222 202° Southwest 352 405 30,000  Level Atlanta Center
Thu 02:24:29 PM 35.4706 -80.2672 202° Southwest 352 405 30,000  Level Atlanta Center
Thu 02:25:29 PM 35.3819 -80.3069 200° South 358 412 30,000  Level Atlanta Center
Thu 02:26:29 PM 35.2997 -80.3489 203° Southwest 353 406 30,000  Level Atlanta Center
Thu 02:27:29 PM 35.2092 -80.3911 201° Southwest 353 406 30,000  Level Atlanta Center
Thu 02:29:59 PM 34.9822 -80.5086 203° Southwest 353 406 30,000  Level Jacksonville Center
Thu 02:30:59 PM 34.8933 -80.5539 203° Southwest 348 400 30,000  Level Jacksonville Center
Thu 02:31:59 PM 34.7983 -80.6019 203° Southwest 348 400 30,000  Level Jacksonville Center
Thu 02:32:59 PM 34.7072 -80.6475 202° Southwest 348 400 30,000 -50 Level Jacksonville Center
Thu 02:33:59 PM 34.6142 -80.6903 201° Southwest 354 407 29,900  Descending Jacksonville Center
Thu 02:34:59 PM 34.5272 -80.7353 203° Southwest 369 425 30,000 50 Climbing Jacksonville Center
Thu 02:35:59 PM 34.4364 -80.7778 201° Southwest 369 425 30,000  Level Jacksonville Center
Thu 02:36:59 PM 34.3411 -80.8278 203° Southwest 366 421 30,000  Level Jacksonville Center
Thu 02:37:59 PM 34.2458 -80.8728 201° Southwest 366 421 30,000  Level Jacksonville Center
Thu 02:38:59 PM 34.1528 -80.9153 201° Southwest 359 413 30,000  Level Jacksonville Center
Thu 02:39:59 PM 34.0594 -80.9600 202° Southwest 359 413 30,000  Level Jacksonville Center
Thu 02:40:59 PM 33.9725 -81.0019 202° Southwest 367 422 30,000  Level Jacksonville Center
Thu 02:41:59 PM 33.8792 -81.0464 202° Southwest 367 422 30,000  Level Jacksonville Center
Thu 02:42:59 PM 33.7839 -81.0908 201° Southwest 367 422 30,000 -50 Level Jacksonville Center
Thu 02:43:59 PM 33.6886 -81.1353 201° Southwest 367 422 29,900  Descending Jacksonville Center
Thu 02:44:59 PM 33.5931 -81.1797 201° Southwest 367 422 30,000  Climbing Jacksonville Center
Thu 02:45:59 PM 33.4956 -81.2239 201° Southwest 367 422 29,900  Descending Jacksonville Center
Thu 02:46:59 PM 33.4003 -81.2678 201° Southwest 367 422 30,000 50 Climbing Jacksonville Center
Thu 02:47:59 PM 33.3028 -81.3119 201° Southwest 367 422 30,000 -50 Level Jacksonville Center
Thu 02:48:59 PM 33.2092 -81.3558 201° Southwest 367 422 29,900  Descending Jacksonville Center
Thu 02:49:59 PM 33.1139 -81.3994 201° Southwest 367 422 30,000  Climbing Jacksonville Center
Thu 02:50:59 PM 33.0142 -81.4458 201° Southwest 367 422 29,900 -50 Descending Jacksonville Center
Thu 02:51:59 PM 32.9167 -81.4894 201° Southwest 367 422 29,900 50 Level Jacksonville Center
Thu 02:52:59 PM 32.8211 -81.5331 201° Southwest 367 422 30,000  Climbing Jacksonville Center
Thu 02:53:59 PM 32.7233 -81.5764 200° South 372 428 29,900  Descending Jacksonville Center
Thu 02:54:59 PM 32.6258 -81.6222 202° Southwest 372 428 30,000 50 Climbing Jacksonville Center
Thu 02:55:59 PM 32.5175 -81.6706 201° Southwest 377 434 30,000  Level Jacksonville Center
Thu 02:56:59 PM 32.4200 -81.7136 200° South 377 434 30,000  Level Jacksonville Center
Thu 02:57:59 PM 32.3306 -81.7542 201° Southwest 384 442 30,000  Level Jacksonville Center
Thu 02:58:59 PM 32.2161 -81.7900 195° South 391 450 30,000  Level Jacksonville Center
Thu 02:59:59 PM 32.1181 -81.8108 190° South 399 459 30,000  Level Jacksonville Center
Thu 03:00:59 PM 32.0014 -81.8342 190° South 394 453 30,000  Level Jacksonville Center
Thu 03:01:59 PM 31.8931 -81.8600 191° South 394 453 30,000  Level Jacksonville Center
Thu 03:02:59 PM 31.7972 -81.8806 190° South 394 453 30,000  Level Jacksonville Center
Thu 03:03:59 PM 31.6783 -81.9064 190° South 394 453 30,000  Level Jacksonville Center
Thu 03:04:59 PM 31.5678 -81.9319 191° South 399 459 30,000  Level Jacksonville Center
Thu 03:05:59 PM 31.4678 -81.9547 191° South 404 465 30,000  Level Jacksonville Center
Thu 03:06:59 PM 31.3447 -81.9828 191° South 412 474 30,000  Level Jacksonville Center
Thu 03:07:59 PM 31.2344 -82.0106 192° South 406 467 30,000 -50 Level Jacksonville Center
Thu 03:08:59 PM 31.1239 -82.0311 189° South 406 467 29,900  Descending Jacksonville Center
Thu 03:09:59 PM 31.0153 -82.0539 190° South 406 467 30,000  Climbing Jacksonville Center
Thu 03:10:59 PM 30.9050 -82.0767 190° South 406 467 29,900 -50 Descending Jacksonville Center
Thu 03:11:59 PM 30.8028 -82.0992 191° South 412 474 29,900  Level Jacksonville Center
Thu 03:12:59 PM 30.6922 -82.1244 191° South 407 468 29,900 50 Level Jacksonville Center
Thu 03:13:59 PM 30.5817 -82.1469 190° South 407 468 30,000 50 Climbing Jacksonville Center
Thu 03:14:59 PM 30.4692 -82.1672 189° South 407 468 30,000  Level Jacksonville Center
Thu 03:15:59 PM 30.3586 -82.1919 191° South 407 468 30,000 -50 Level Jacksonville Center
Thu 03:16:59 PM 30.2458 -82.2144 190° South 407 468 29,900  Descending Jacksonville Center
Thu 03:17:59 PM 30.1333 -82.2392 191° South 407 468 30,000 50 Climbing Jacksonville Center
Thu 03:18:59 PM 30.0206 -82.2642 191° South 407 468 30,000 -300 Level Jacksonville Center
Thu 03:19:59 PM 29.9122 -82.2911 192° South 412 474 29,400 -950 Descending Jacksonville Center
Thu 03:20:59 PM 29.8081 -82.3133 190° South 400 460 28,100 -1,350 Descending Jacksonville Center
Thu 03:21:59 PM 29.7058 -82.3283 187° South 385 443 26,700 -1,050 Descending Jacksonville Center
Thu 03:22:59 PM 29.6097 -82.3481 190° South 372 428 26,000 -400 Descending Jacksonville Center
Thu 03:23:59 PM 29.5053 -82.3461 179° South 367 422 25,900 -1,150 Descending Jacksonville Center
Thu 03:24:59 PM 29.4031 -82.3347 174° South 367 422 23,700 -1,950 Descending Jacksonville Center
Thu 03:25:59 PM 29.3008 -82.3233 174° South 367 422 22,000 -1,800 Descending Jacksonville Center
Thu 03:26:59 PM 29.1964 -82.3097 174° South 367 422 20,100 -1,850 Descending Jacksonville Center
Thu 03:27:59 PM 29.1003 -82.3008 175° South 362 417 18,300 -1,650 Descending Jacksonville Center
Thu 03:28:59 PM 29.0042 -82.2894 174° South 355 409 16,800 -1,600 Descending Jacksonville Center
Thu 03:29:59 PM 28.9164 -82.2783 174° South 355 409 15,100 -1,112 Descending Jacksonville Center
Thu 03:32:24 PM 28.7000 -82.2500 173° South 286 329 13,000 -966 Descending Tampa TRACON
Thu 03:33:24 PM 28.6000 -82.2500 180° South 316 364 11,800 -1,429 Descending Tampa TRACON
Thu 03:34:30 PM 28.5167 -82.2833 199° South 304 350 10,000 -850 Descending Tampa TRACON
Thu 03:35:31 PM 28.5000 -82.3667 257° West 290 334 10,000  Level Tampa TRACON
Thu 03:36:30 PM 28.4833 -82.4667 259° West 294 338 10,000 -167 Level Tampa TRACON
Thu 03:37:19 PM 28.4833 -82.5333 270° West 289 333 9,700 -936 Descending Tampa TRACON
Thu 03:38:19 PM 28.4667 -82.6167 257° West 267 307 8,300 -1,550 Descending Tampa TRACON
Thu 03:39:19 PM 28.4333 -82.7000 246° West 258 297 6,600 -1,150 Descending Tampa TRACON
Thu 03:40:19 PM 28.3833 -82.7667 230° Southwest 257 296 6,000 -273 Descending Tampa TRACON
Thu 03:41:31 PM 28.3167 -82.8000 204° Southwest 257 296 6,000  Level Tampa TRACON
Thu 03:42:31 PM 28.2500 -82.8000 180° South 255 293 6,000  Level Tampa TRACON
Thu 03:43:31 PM 28.1667 -82.8167 190° South 255 293 6,000 -50 Level Tampa TRACON
Thu 03:44:31 PM 28.1000 -82.8167 180° South 228 262 5,900 -368 Descending Tampa TRACON
Thu 03:45:25 PM 28.0500 -82.8333 196° South 211 243 5,300 -474 Descending Tampa TRACON
Thu 03:46:25 PM 28.0000 -82.8167 164° South 215 247 5,000 -524 Descending Tampa TRACON
Thu 03:47:31 PM 27.9333 -82.8167 180° South 205 236 4,200 -550 Descending Tampa TRACON
Thu 03:48:25 PM 27.8833 -82.8000 164° South 207 238 3,900 -632 Descending Tampa TRACON
Thu 03:49:25 PM 27.8333 -82.7833 164° South 209 241 3,000 -950 Descending Tampa TRACON
Thu 03:50:25 PM 27.7667 -82.7500 156° South 197 227 2,000 -526 Descending Tampa TRACON
Thu 03:51:19 PM 27.7333 -82.7333 156° South 215 247 2,000  Level Tampa TRACON
Thu 03:52:19 PM 27.7167 -82.6667 106° East 208 239 2,000 -48 Level Tampa TRACON
Thu 03:53:25 PM 27.7667 -82.6667 360° North 169 194 1,900 -238 Descending Tampa TRACON
Thu 03:54:25 PM 27.8167 -82.6667 360° North 156 180 1,500 -496 Descending Tampa TRACON
Thu 03:55:26 PM 27.8667 -82.6833 344° North 142 163 900 -590 Descending Tampa TRACON

Login

Don't have an account? Register now (free) for customized features, flight alerts, and more!